Time;durP1;ratioP1;P1;durP2;ratioP2;P2;SDS_P1;SDS_P2;PMS_P1;PMS_P2;Temp;Humidity;BMP_temperature;BMP_pressure;BME280_temperature;BME280_humidity;BME280_pressure;Samples;Min_cycle;Max_cycle;Signal;HPM_P1;HPM_P2
2022/06/29 00:00:06;;;;;;;;;;;;;;;;;;5097209;27;1312;-80
2022/06/29 00:02:34;;;;;;;;;;;;;;;;;;5105695;27;1147;-80
2022/06/29 00:05:01;;;;;;;;;;;;;;;;;;5088124;27;1195;-80
2022/06/29 00:07:29;;;;;;;;;;;;;;;;;;5107316;27;1248;-80
2022/06/29 00:09:55;;;;;;;;;;;;;;;;;;5107134;27;1901;-79
2022/06/29 00:12:20;;;;;;;;;;;;;;;;;;5108730;27;1151;-78
2022/06/29 00:14:45;;;;;;;;;;;;;;;;;;5114034;27;1265;-80
2022/06/29 00:17:11;;;;;;;;;;;;;;;;;;5101444;27;1198;-81
2022/06/29 00:19:40;;;;;;;;;;;;;;;;;;5088871;27;1298;-78
2022/06/29 00:22:06;;;;;;;;;;;;;;;;;;5138548;27;1225;-81
2022/06/29 00:24:31;;;;;;;;;;;;;;;;;;5099538;27;1189;-81
2022/06/29 00:26:57;;;;;;;;;;;;;;;;;;5107068;27;1282;-79
2022/06/29 00:29:22;;;;;;;;;;;;;;;;;;5108995;27;1890;-80
2022/06/29 00:31:48;;;;;;;;;;;;;;;;;;5092705;27;1369;-80
2022/06/29 00:34:13;;;;;;;;;;;;;;;;;;5119496;27;1167;-80
2022/06/29 00:36:42;;;;;;;;;;;;;;;;;;5106636;27;1219;-80
2022/06/29 00:39:07;;;;;;;;;;;;;;;;;;5142892;27;1157;-79
2022/06/29 00:41:39;;;;;;;;;;;;;;;;;;5144501;27;1202;-81
2022/06/29 00:44:07;;;;;;;;;;;;;;;;;;5123954;27;1229;-80
2022/06/29 00:46:32;;;;;;;;;;;;;;;;;;5115314;27;1161;-80
2022/06/29 00:48:57;;;;;;;;;;;;;;;;;;5125411;27;1963;-80
2022/06/29 00:51:24;;;;;;;;;;;;;;;;;;5090611;27;1184;-80
2022/06/29 00:53:50;;;;;;;;;;;;;;;;;;5110183;27;1216;-81
2022/06/29 00:56:17;;;;;;;;;;;;;;;;;;5111181;27;1248;-81
2022/06/29 00:58:45;;;;;;;;;;;;;;;;;;5114550;27;1249;-80
2022/06/29 01:01:11;;;;;;;;;;;;;;;;;;5147092;27;1361;-80
2022/06/29 01:03:36;;;;;;;;;;;;;;;;;;5129872;27;1205;-80
2022/06/29 01:06:02;;;;;;;;;;;;;;;;;;5099199;27;1162;-80
2022/06/29 01:08:27;;;;;;;;;;;;;;;;;;5113605;27;1155;-80
2022/06/29 01:10:53;;;;;;;;;;;;;;;;;;5123162;27;1951;-81
2022/06/29 01:13:18;;;;;;;;;;;;;;;;;;5109386;27;1274;-80
2022/06/29 01:15:43;;;;;;;;;;;;;;;;;;5126688;27;1286;-81
2022/06/29 01:18:09;;;;;;;;;;;;;;;;;;5089433;27;1378;-80
2022/06/29 01:20:34;;;;;;;;;;;;;;;;;;5104444;27;1178;-80
2022/06/29 01:22:59;;;;;;;;;;;;;;;;;;5111445;27;1202;-81
2022/06/29 01:25:24;;;;;;;;;;;;;;;;;;5149662;27;1186;-81
2022/06/29 01:27:50;;;;;;;;;;;;;;;;;;5111391;27;1273;-80
2022/06/29 01:30:15;;;;;;;;;;;;;;;;;;5089217;27;1939;-81
2022/06/29 01:32:40;;;;;;;;;;;;;;;;;;5126754;27;1210;-79
2022/06/29 01:35:25;;;;;;;;;;;;;;;;;;5133613;27;1182;-80
2022/06/29 01:37:51;;;;;;;;;;;;;;;;;;5120724;27;1191;-80
2022/06/29 01:40:16;;;;;;;;;;;;;;;;;;5129017;27;1206;-80
2022/06/29 01:42:46;;;;;;;;;;;;;;;;;;5118599;27;1139;-80
2022/06/29 01:45:11;;;;;;;;;;;;;;;;;;5116065;27;1159;-80
2022/06/29 01:47:36;;;;;;;;;;;;;;;;;;5118990;27;1291;-80
2022/06/29 01:50:02;;;;;;;;;;;;;;;;;;5107624;27;1889;-80
2022/06/29 01:52:27;;;;;;;;;;;;;;;;;;5111338;27;1081;-80
2022/06/29 01:54:52;;;;;;;;;;;;;;;;;;5104080;28;1135;-80
2022/06/29 01:57:18;;;;;;;;;;;;;;;;;;5105915;28;1128;-80
2022/06/29 01:59:45;;;;;;;;;;;;;;;;;;5102569;28;1080;-80
2022/06/29 02:02:10;;;;;;;;;;;;;;;;;;5094144;27;1155;-80
2022/06/29 02:04:35;;;;;;;;;;;;;;;;;;5087121;28;1195;-81
2022/06/29 02:07:01;;;;;;;;;;;;;;;;;;5117778;27;1159;-81
2022/06/29 02:09:26;;;;;;;;;;;;;;;;;;5121646;27;1951;-80
2022/06/29 02:11:51;;;;;;;;;;;;;;;;;;5125430;27;1159;-80
2022/06/29 02:14:16;;;;;;;;;;;;;;;;;;5111325;27;1222;-81
2022/06/29 02:16:42;;;;;;;;;;;;;;;;;;5087107;28;1336;-80
2022/06/29 02:19:07;;;;;;;;;;;;;;;;;;5116368;27;1183;-80
2022/06/29 02:21:32;;;;;;;;;;;;;;;;;;5120376;27;1256;-80
2022/06/29 02:23:58;;;;;;;;;;;;;;;;;;5097516;28;1189;-81
2022/06/29 02:26:23;;;;;;;;;;;;;;;;;;5108966;27;1237;-81
2022/06/29 02:28:52;;;;;;;;;;;;;;;;;;5093193;28;1886;-80
2022/06/29 02:36:46;;;;;;;;;;;;;;;;;;5106387;27;1099;-81
2022/06/29 02:39:12;;;;;;;;;;;;;;;;;;5110594;27;1409;-81
2022/06/29 02:41:37;;;;;;;;;;;;;;;;;;5107484;27;1268;-81
2022/06/29 02:44:05;;;;;;;;;;;;;;;;;;5119671;27;1234;-80
2022/06/29 02:46:30;;;;;;;;;;;;;;;;;;5111197;27;1167;-81
2022/06/29 02:48:58;;;;;;;;;;;;;;;;;;5082738;28;1972;-81
2022/06/29 02:51:23;;;;;;;;;;;;;;;;;;5112016;27;1234;-81
2022/06/29 02:53:52;;;;;;;;;;;;;;;;;;5108013;27;1200;-81
2022/06/29 02:56:17;;;;;;;;;;;;;;;;;;5108381;27;1289;-81
2022/06/29 02:58:43;;;;;;;;;;;;;;;;;;5116359;27;1202;-81
2022/06/29 03:01:08;;;;;;;;;;;;;;;;;;5095084;27;1178;-81
2022/06/29 03:03:33;;;;;;;;;;;;;;;;;;5106365;27;1179;-81
2022/06/29 03:05:58;;;;;;;;;;;;;;;;;;5116718;27;1198;-81
2022/06/29 03:08:23;;;;;;;;;;;;;;;;;;5098727;28;1272;-81
2022/06/29 03:10:57;;;;;;;;;;;;;;;;;;5086201;28;1886;-81
2022/06/29 03:13:22;;;;;;;;;;;;;;;;;;5106065;27;1213;-81
2022/06/29 03:15:58;;;;;;;;;;;;;;;;;;5109955;27;1286;-81
2022/06/29 03:18:23;;;;;;;;;;;;;;;;;;5121863;27;1297;-81
2022/06/29 03:20:54;;;;;;;;;;;;;;;;;;5119928;27;1191;-81
2022/06/29 03:23:19;;;;;;;;;;;;;;;;;;5092728;28;1183;-81
2022/06/29 03:25:45;;;;;;;;;;;;;;;;;;5086481;28;1193;-81
2022/06/29 03:28:10;;;;;;;;;;;;;;;;;;5085744;28;1225;-81
2022/06/29 03:30:35;;;;;;;;;;;;;;;;;;5083172;28;1957;-81
2022/06/29 03:33:01;;;;;;;;;;;;;;;;;;5109517;27;1164;-81
2022/06/29 03:35:26;;;;;;;;;;;;;;;;;;5119278;27;1139;-81
2022/06/29 03:37:55;;;;;;;;;;;;;;;;;;5116957;27;1303;-82
2022/06/29 03:40:20;;;;;;;;;;;;;;;;;;5112731;27;1271;-80
2022/06/29 03:42:45;;;;;;;;;;;;;;;;;;5086196;28;1325;-80
2022/06/29 03:45:10;;;;;;;;;;;;;;;;;;5115330;28;1313;-80
2022/06/29 03:47:39;;;;;;;;;;;;;;;;;;5103679;28;1152;-80
2022/06/29 03:50:05;;;;;;;;;;;;;;;;;;5119412;28;1905;-80
2022/06/29 03:52:31;;;;;;;;;;;;;;;;;;5097201;28;1233;-80
2022/06/29 03:54:59;;;;;;;;;;;;;;;;;;5097183;28;1291;-80
2022/06/29 03:57:24;;;;;;;;;;;;;;;;;;5106931;28;1197;-80
2022/06/29 03:59:49;;;;;;;;;;;;;;;;;;5122047;27;1180;-80
2022/06/29 04:02:15;;;;;;;;;;;;;;;;;;5107198;27;1295;-80
2022/06/29 04:04:40;;;;;;;;;;;;;;;;;;5112424;27;1309;-80
2022/06/29 04:07:05;;;;;;;;;;;;;;;;;;5086503;28;1293;-80
2022/06/29 04:09:30;;;;;;;;;;;;;;;;;;5121783;27;1901;-80
2022/06/29 04:11:57;;;;;;;;;;;;;;;;;;5096835;28;1439;-80
2022/06/29 04:14:24;;;;;;;;;;;;;;;;;;5100114;27;1172;-80
2022/06/29 04:16:51;;;;;;;;;;;;;;;;;;5125858;27;1219;-80
2022/06/29 04:19:16;;;;;;;;;;;;;;;;;;5103473;28;1289;-80
2022/06/29 04:21:42;;;;;;;;;;;;;;;;;;5087548;28;1210;-80
2022/06/29 04:24:10;;;;;;;;;;;;;;;;;;5111070;27;1185;-80
2022/06/29 04:26:36;;;;;;;;;;;;;;;;;;5113903;27;1336;-80
2022/06/29 04:29:04;;;;;;;;;;;;;;;;;;5108926;27;1967;-80
2022/06/29 04:31:29;;;;;;;;;;;;;;;;;;5115676;27;1169;-80
2022/06/29 04:33:59;;;;;;;;;;;;;;;;;;5116570;27;1171;-80
2022/06/29 04:36:25;;;;;;;;;;;;;;;;;;5125334;27;1208;-81
2022/06/29 04:38:50;;;;;;;;;;;;;;;;;;5128269;27;1157;-80
2022/06/29 04:41:16;;;;;;;;;;;;;;;;;;5111215;27;1280;-81
2022/06/29 04:43:41;;;;;;;;;;;;;;;;;;5109230;28;1261;-80
2022/06/29 04:46:22;;;;;;;;;;;;;;;;;;5091895;27;1156;-80
2022/06/29 04:49:02;;;;;;;;;;;;;;;;;;5089928;28;1914;-80
2022/06/29 04:51:28;;;;;;;;;;;;;;;;;;5112612;27;1299;-81
2022/06/29 04:53:54;;;;;;;;;;;;;;;;;;5127818;27;1294;-80
2022/06/29 04:56:20;;;;;;;;;;;;;;;;;;5118661;27;1220;-81
2022/06/29 04:58:45;;;;;;;;;;;;;;;;;;5127503;27;1406;-81
2022/06/29 05:01:10;;;;;;;;;;;;;;;;;;5116145;27;1177;-80
2022/06/29 05:03:36;;;;;;;;;;;;;;;;;;5112737;27;1320;-81
2022/06/29 05:06:04;;;;;;;;;;;;;;;;;;5116392;27;1165;-80
2022/06/29 05:08:29;;;;;;;;;;;;;;;;;;5107936;28;1296;-81
2022/06/29 05:10:55;;;;;;;;;;;;;;;;;;5114614;27;1878;-81
2022/06/29 05:13:20;;;;;;;;;;;;;;;;;;5116663;27;1135;-81
2022/06/29 05:15:45;;;;;;;;;;;;;;;;;;5125135;27;1292;-81
2022/06/29 05:18:10;;;;;;;;;;;;;;;;;;5098162;28;1287;-81
2022/06/29 05:20:35;;;;;;;;;;;;;;;;;;5087316;28;1181;-80
2022/06/29 05:23:08;;;;;;;;;;;;;;;;;;5090018;28;1445;-81
2022/06/29 05:25:34;;;;;;;;;;;;;;;;;;5088298;28;1189;-81
2022/06/29 05:27:59;;;;;;;;;;;;;;;;;;5127586;27;1175;-81
2022/06/29 05:30:24;;;;;;;;;;;;;;;;;;5107945;27;1944;-80
2022/06/29 05:32:50;;;;;;;;;;;;;;;;;;5108603;27;1230;-81
2022/06/29 05:35:18;;;;;;;;;;;;;;;;;;5105565;27;1238;-81
2022/06/29 05:37:43;;;;;;;;;;;;;;;;;;5116861;27;1197;-79
2022/06/29 05:40:09;;;;;;;;;;;;;;;;;;5100793;27;1263;-79
2022/06/29 05:42:35;;;;;;;;;;;;;;;;;;5116761;27;1254;-79
2022/06/29 05:45:00;;;;;;;;;;;;;;;;;;5120085;27;1267;-79
2022/06/29 05:47:26;;;;;;;;;;;;;;;;;;5103230;28;1198;-79
2022/06/29 05:49:51;;;;;;;;;;;;;;;;;;5122909;27;1955;-81
2022/06/29 05:52:16;;;;;;;;;;;;;;;;;;5093301;28;1263;-80
2022/06/29 05:54:42;;;;;;;;;;;;;;;;;;5115666;27;1197;-80
2022/06/29 05:57:11;;;;;;;;;;;;;;;;;;5109699;27;1160;-79
2022/06/29 05:59:37;;;;;;;;;;;;;;;;;;5116412;27;1165;-80
2022/06/29 06:02:03;;;;;;;;;;;;;;;;;;5087630;28;1308;-80
2022/06/29 06:04:28;;;;;;;;;;;;;;;;;;5086634;27;1296;-80
2022/06/29 06:06:53;;;;;;;;;;;;;;;;;;5109112;27;1215;-80
2022/06/29 06:09:22;;;;;;;;;;;;;;;;;;5088695;27;1947;-78
2022/06/29 06:11:47;;;;;;;;;;;;;;;;;;5110398;27;1391;-79
2022/06/29 06:14:13;;;;;;;;;;;;;;;;;;5090942;28;1330;-79
2022/06/29 06:16:38;;;;;;;;;;;;;;;;;;5114879;27;1178;-78
2022/06/29 06:19:04;;;;;;;;;;;;;;;;;;5114423;27;1288;-76
2022/06/29 06:21:29;;;;;;;;;;;;;;;;;;5084768;28;1423;-76
2022/06/29 06:24:03;;;;;;;;;;;;;;;;;;5125693;27;1116;-76
2022/06/29 06:26:28;;;;;;;;;;;;;;;;;;5124937;27;1178;-77
2022/06/29 06:28:54;;;;;;;;;;;;;;;;;;5126956;27;1957;-77
2022/06/29 06:31:19;;;;;;;;;;;;;;;;;;5105066;27;1406;-77
2022/06/29 06:33:44;;;;;;;;;;;;;;;;;;5106588;27;1169;-76
2022/06/29 06:36:18;;;;;;;;;;;;;;;;;;5107237;27;1240;-76
2022/06/29 06:38:44;;;;;;;;;;;;;;;;;;5126866;27;1127;-78
2022/06/29 06:41:21;;;;;;;;;;;;;;;;;;5108107;27;1271;-78
2022/06/29 06:43:46;;;;;;;;;;;;;;;;;;5089160;28;1189;-78
2022/06/29 06:46:15;;;;;;;;;;;;;;;;;;5087059;28;1254;-78
2022/06/29 06:48:40;;;;;;;;;;;;;;;;;;5113207;27;1211;-79
2022/06/29 06:51:05;;;;;;;;;;;;;;;;;;5115707;27;1922;-78
2022/06/29 06:53:31;;;;;;;;;;;;;;;;;;5130587;27;1112;-78
2022/06/29 06:55:57;;;;;;;;;;;;;;;;;;5100718;27;1158;-78
2022/06/29 06:58:22;;;;;;;;;;;;;;;;;;5111919;27;1225;-83
2022/06/29 07:00:47;;;;;;;;;;;;;;;;;;5131616;27;1273;-79
2022/06/29 07:03:15;;;;;;;;;;;;;;;;;;5131698;27;1179;-79
2022/06/29 07:05:40;;;;;;;;;;;;;;;;;;5123285;27;1438;-79
2022/06/29 07:08:06;;;;;;;;;;;;;;;;;;5126444;27;1155;-80
2022/06/29 07:10:31;;;;;;;;;;;;;;;;;;5117048;27;1960;-79
2022/06/29 07:12:56;;;;;;;;;;;;;;;;;;5125825;27;1206;-79
2022/06/29 07:15:21;;;;;;;;;;;;;;;;;;5132942;27;1190;-80
2022/06/29 07:17:47;;;;;;;;;;;;;;;;;;5114976;27;1231;-80
2022/06/29 07:20:22;;;;;;;;;;;;;;;;;;5115863;27;1226;-80
2022/06/29 07:22:47;;;;;;;;;;;;;;;;;;5144796;27;1190;-80
2022/06/29 07:25:16;;;;;;;;;;;;;;;;;;5151053;27;1091;-79
2022/06/29 07:27:43;;;;;;;;;;;;;;;;;;5115497;27;1198;-80
2022/06/29 07:30:09;;;;;;;;;;;;;;;;;;5131400;27;1890;-80
2022/06/29 07:32:37;;;;;;;;;;;;;;;;;;5102630;27;1383;-80
2022/06/29 07:35:03;;;;;;;;;;;;;;;;;;5114826;27;1296;-80
2022/06/29 07:37:28;;;;;;;;;;;;;;;;;;5129384;27;1359;-79
2022/06/29 07:39:53;;;;;;;;;;;;;;;;;;5129228;27;1422;-78
2022/06/29 07:42:18;;;;;;;;;;;;;;;;;;5109447;27;1171;-77
2022/06/29 07:44:44;;;;;;;;;;;;;;;;;;5108381;27;1293;-76
2022/06/29 07:47:09;;;;;;;;;;;;;;;;;;5110785;27;1159;-79
2022/06/29 07:49:34;;;;;;;;;;;;;;;;;;5101505;27;2034;-79
2022/06/29 07:51:59;;;;;;;;;;;;;;;;;;5107119;27;1329;-81
2022/06/29 07:54:25;;;;;;;;;;;;;;;;;;5110328;27;1183;-78
2022/06/29 07:56:50;;;;;;;;;;;;;;;;;;5120148;27;1194;-79
2022/06/29 07:59:19;;;;;;;;;;;;;;;;;;5092403;27;1151;-81
2022/06/29 08:01:44;;;;;;;;;;;;;;;;;;5127204;27;1166;-81
2022/06/29 08:04:09;;;;;;;;;;;;;;;;;;5095085;27;1161;-81
2022/06/29 08:06:35;;;;;;;;;;;;;;;;;;5106047;27;1183;-80
2022/06/29 08:09:02;;;;;;;;;;;;;;;;;;5127850;27;1897;-81
2022/06/29 08:11:27;;;;;;;;;;;;;;;;;;5089157;27;1447;-79
2022/06/29 08:13:52;;;;;;;;;;;;;;;;;;5110784;27;1095;-81
2022/06/29 08:16:21;;;;;;;;;;;;;;;;;;5106420;27;1289;-79
2022/06/29 08:18:46;;;;;;;;;;;;;;;;;;5126549;27;1309;-81
2022/06/29 08:21:11;;;;;;;;;;;;;;;;;;5126673;27;1167;-79
2022/06/29 08:23:36;;;;;;;;;;;;;;;;;;5111524;27;1273;-80
2022/06/29 08:26:02;;;;;;;;;;;;;;;;;;5128466;27;1184;-80
2022/06/29 08:28:27;;;;;;;;;;;;;;;;;;5111487;27;1316;-80
2022/06/29 08:30:53;;;;;;;;;;;;;;;;;;5110595;27;1889;-81
2022/06/29 08:33:21;;;;;;;;;;;;;;;;;;5145564;27;1138;-80
2022/06/29 08:35:48;;;;;;;;;;;;;;;;;;5126726;27;1329;-80
2022/06/29 08:38:13;;;;;;;;;;;;;;;;;;5112065;27;1191;-79
2022/06/29 08:40:44;;;;;;;;;;;;;;;;;;5126377;27;1284;-80
2022/06/29 08:43:23;;;;;;;;;;;;;;;;;;5112107;27;1261;-80
2022/06/29 08:45:49;;;;;;;;;;;;;;;;;;5126280;27;1268;-80
2022/06/29 08:48:15;;;;;;;;;;;;;;;;;;5114803;27;1178;-80
2022/06/29 08:50:42;;;;;;;;;;;;;;;;;;5131461;27;1959;-79
2022/06/29 08:53:08;;;;;;;;;;;;;;;;;;5130213;27;1178;-78
2022/06/29 08:55:37;;;;;;;;;;;;;;;;;;5093604;27;1294;-79
2022/06/29 08:58:02;;;;;;;;;;;;;;;;;;5125673;27;1234;-80
2022/06/29 09:00:29;;;;;;;;;;;;;;;;;;5125576;27;1190;-79
2022/06/29 09:02:54;;;;;;;;;;;;;;;;;;5102206;27;1293;-79
2022/06/29 09:05:25;;;;;;;;;;;;;;;;;;5115249;27;1214;-79
2022/06/29 09:07:51;;;;;;;;;;;;;;;;;;5114882;27;1303;-79
2022/06/29 09:10:19;;;;;;;;;;;;;;;;;;5131566;27;1878;-79
2022/06/29 09:12:49;;;;;;;;;;;;;;;;;;5099630;27;1186;-84
2022/06/29 09:15:15;;;;;;;;;;;;;;;;;;5091595;27;1239;-82
2022/06/29 09:17:40;;;;;;;;;;;;;;;;;;5129285;27;1178;-83
2022/06/29 09:20:06;;;;;;;;;;;;;;;;;;5098941;27;1219;-82
2022/06/29 09:22:31;;;;;;;;;;;;;;;;;;5128579;27;1323;-83
2022/06/29 09:24:56;;;;;;;;;;;;;;;;;;5111152;27;1249;-81
2022/06/29 09:27:36;;;;;;;;;;;;;;;;;;5108743;27;1194;-82
2022/06/29 09:30:02;;;;;;;;;;;;;;;;;;5119339;27;1881;-78
2022/06/29 09:32:47;;;;;;;;;;;;;;;;;;5145082;27;1271;-78
2022/06/29 09:35:20;;;;;;;;;;;;;;;;;;5126989;27;1188;-78
2022/06/29 09:37:45;;;;;;;;;;;;;;;;;;5118328;27;1289;-78
2022/06/29 09:40:10;;;;;;;;;;;;;;;;;;5095355;27;1353;-78
2022/06/29 09:42:36;;;;;;;;;;;;;;;;;;5121382;27;1352;-78
2022/06/29 09:45:01;;;;;;;;;;;;;;;;;;5088137;27;1167;-78
2022/06/29 09:47:47;;;;;;;;;;;;;;;;;;5088970;27;1514;-78
2022/06/29 09:50:23;;;;;;;;;;;;;;;;;;5126835;27;1906;-78
2022/06/29 09:52:49;;;;;;;;;;;;;;;;;;5107428;27;1197;-78
2022/06/29 09:55:14;;;;;;;;;;;;;;;;;;5108650;27;1364;-79
2022/06/29 09:57:40;;;;;;;;;;;;;;;;;;5115361;27;1217;-77
2022/06/29 10:02:58;;;;;;;;;;;;;;;;;;5123663;27;999;-80
2022/06/29 10:05:54;;;;;;;;;;;;;;;;;;5107211;27;1290;-77
2022/06/29 10:08:13;;;;;;;;;;;;;;;;;;5148449;27;1067;-78
2022/06/29 10:10:39;;;;;;;;;;;;;;;;;;5144730;27;1910;-77
2022/06/29 10:15:58;;;;;;;;;;;;;;;;;;5124278;27;1043;-77
2022/06/29 10:18:45;;;;;;;;;;;;;;;;;;5127106;27;1281;-76
2022/06/29 10:21:16;;;;;;;;;;;;;;;;;;5105811;27;1175;-77
2022/06/29 10:23:48;;;;;;;;;;;;;;;;;;5133097;27;1232;-77
2022/06/29 10:26:39;;;;;;;;;;;;;;;;;;5129441;27;1047;-77
2022/06/29 10:29:10;;;;;;;;;;;;;;;;;;5106129;27;1894;-76
2022/06/29 10:31:56;;;;;;;;;;;;;;;;;;5139146;27;1120;-76
2022/06/29 10:34:34;;;;;;;;;;;;;;;;;;5113446;27;1226;-77
2022/06/29 10:37:00;;;;;;;;;;;;;;;;;;5117325;27;1092;-76
2022/06/29 10:39:25;;;;;;;;;;;;;;;;;;5118713;27;1327;-78
2022/06/29 10:45:14;;;;;;;;;;;;;;;;;;5122881;27;1024;-77
2022/06/29 10:47:39;;;;;;;;;;;;;;;;;;5033377;28;1276;-77
2022/06/29 10:50:40;;;;;;;;;;;;;;;;;;5010253;28;1946;-77
2022/06/29 10:53:05;;;;;;;;;;;;;;;;;;5073866;28;1444;-77
2022/06/29 10:55:42;;;;;;;;;;;;;;;;;;;;;
2022/06/29 10:58:08;;;;;;;;;;;;;;;;;;5109849;27;1230;-77
2022/06/29 11:00:41;;;;;;;;;;;;;;;;;;5105386;27;1253;-76
2022/06/29 11:03:09;;;;;;;;;;;;;;;;;;5107076;27;1197;-76
2022/06/29 11:14:06;;;;;;;;;;;;;;;;;;5132524;27;1002;-79
2022/06/29 11:16:38;;;;;;;;;;;;;;;;;;5113801;27;1189;-79
2022/06/29 11:19:04;;;;;;;;;;;;;;;;;;5106099;27;1141;-79
2022/06/29 11:21:29;;;;;;;;;;;;;;;;;;5085649;27;1266;-79
2022/06/29 11:24:05;;;;;;;;;;;;;;;;;;5109832;27;1321;-80
2022/06/29 11:26:31;;;;;;;;;;;;;;;;;;5129789;27;1241;-80
2022/06/29 11:29:07;;;;;;;;;;;;;;;;;;5106961;27;1921;-79
2022/06/29 11:31:32;;;;;;;;;;;;;;;;;;5112729;27;1392;-79
2022/06/29 11:33:59;;;;;;;;;;;;;;;;;;5107881;27;1214;-80
2022/06/29 11:36:26;;;;;;;;;;;;;;;;;;5127687;27;1213;-79
2022/06/29 11:38:52;;;;;;;;;;;;;;;;;;5126065;27;1363;-80
2022/06/29 11:43:03;;;;;;;;;;;;;;;;;;5113922;27;1299;-79
2022/06/29 11:44:21;;;;;;;;;;;;;;;;;;5130486;27;1019;-81
2022/06/29 11:46:46;;;;;;;;;;;;;;;;;;5127074;27;1273;-79
2022/06/29 11:52:01;;;;;;;;;;;;;;;;;;5129500;27;980;-79
2022/06/29 11:54:45;;;;;;;;;;;;;;;;;;5127800;27;1233;-81
2022/06/29 11:57:12;;;;;;;;;;;;;;;;;;5127974;27;1177;-79
2022/06/29 11:59:46;;;;;;;;;;;;;;;;;;5109473;27;1174;-77
2022/06/29 12:02:12;;;;;;;;;;;;;;;;;;5128906;27;1111;-78
2022/06/29 12:04:37;;;;;;;;;;;;;;;;;;5126089;27;1280;-80
2022/06/29 12:07:04;;;;;;;;;;;;;;;;;;5108874;27;1155;-80
2022/06/29 12:09:29;;;;;;;;;;;;;;;;;;5128020;27;1881;-79
2022/06/29 12:11:55;;;;;;;;;;;;;;;;;;5143534;27;1203;-82
2022/06/29 12:14:20;;;;;;;;;;;;;;;;;;5114712;27;1193;-80
2022/06/29 12:16:45;;;;;;;;;;;;;;;;;;5127612;27;1210;-79
2022/06/29 12:19:11;;;;;;;;;;;;;;;;;;5109566;27;1236;-80
2022/06/29 12:21:36;;;;;;;;;;;;;;;;;;5109752;27;1368;-79
2022/06/29 12:24:02;;;;;;;;;;;;;;;;;;5126991;27;1540;-79
2022/06/29 12:26:27;;;;;;;;;;;;;;;;;;5115514;27;1299;-79
2022/06/29 12:28:53;;;;;;;;;;;;;;;;;;5094673;27;1198;-79
2022/06/29 12:31:18;;;;;;;;;;;;;;;;;;5109954;27;1918;-78
2022/06/29 12:33:47;;;;;;;;;;;;;;;;;;5109693;27;1356;-79
2022/06/29 12:36:12;;;;;;;;;;;;;;;;;;5135887;27;1166;-79
2022/06/29 12:38:38;;;;;;;;;;;;;;;;;;5111215;27;1206;-78
2022/06/29 12:41:03;;;;;;;;;;;;;;;;;;5108126;27;1041;-78
2022/06/29 12:43:28;;;;;;;;;;;;;;;;;;5093887;27;1283;-78
2022/06/29 12:45:54;;;;;;;;;;;;;;;;;;5123822;27;1337;-78
2022/06/29 12:48:19;;;;;;;;;;;;;;;;;;5102088;28;1285;-79
2022/06/29 12:50:48;;;;;;;;;;;;;;;;;;5084743;28;1914;-78
2022/06/29 12:53:14;;;;;;;;;;;;;;;;;;5107581;28;1226;-79
2022/06/29 12:55:39;;;;;;;;;;;;;;;;;;5088527;28;1205;-79
2022/06/29 12:58:04;;;;;;;;;;;;;;;;;;5105418;28;1210;-81
2022/06/29 13:00:29;;;;;;;;;;;;;;;;;;5084735;28;1217;-79
2022/06/29 13:02:55;;;;;;;;;;;;;;;;;;5106144;28;1186;-79
2022/06/29 13:05:21;;;;;;;;;;;;;;;;;;5104367;28;1183;-78
2022/06/29 13:07:49;;;;;;;;;;;;;;;;;;5088373;28;1214;-78
2022/06/29 13:10:14;;;;;;;;;;;;;;;;;;5108556;27;1878;-79
2022/06/29 13:12:40;;;;;;;;;;;;;;;;;;5129233;27;1207;-79
2022/06/29 13:15:05;;;;;;;;;;;;;;;;;;5085778;28;1372;-79
2022/06/29 13:17:35;;;;;;;;;;;;;;;;;;5094336;27;1184;-80
2022/06/29 13:20:00;;;;;;;;;;;;;;;;;;5108806;27;1152;-80
2022/06/29 13:22:25;;;;;;;;;;;;;;;;;;5112513;27;1272;-80
2022/06/29 13:24:51;;;;;;;;;;;;;;;;;;5106318;28;1151;-79
2022/06/29 13:27:16;;;;;;;;;;;;;;;;;;5124466;27;1225;-80
2022/06/29 13:29:41;;;;;;;;;;;;;;;;;;5092664;28;1923;-81
2022/06/29 13:32:07;;;;;;;;;;;;;;;;;;5089303;27;1195;-82
2022/06/29 13:34:32;;;;;;;;;;;;;;;;;;5099085;28;1165;-81
2022/06/29 13:36:58;;;;;;;;;;;;;;;;;;5102022;27;1344;-81
2022/06/29 13:39:23;;;;;;;;;;;;;;;;;;5119439;27;1210;-81
2022/06/29 13:41:58;;;;;;;;;;;;;;;;;;5101292;27;1161;-79
2022/06/29 13:44:24;;;;;;;;;;;;;;;;;;5103104;28;1312;-81
2022/06/29 13:46:58;;;;;;;;;;;;;;;;;;5105555;28;1202;-80
2022/06/29 13:49:24;;;;;;;;;;;;;;;;;;5103828;28;1905;-81
2022/06/29 13:51:50;;;;;;;;;;;;;;;;;;5105283;28;1191;-80
2022/06/29 13:54:16;;;;;;;;;;;;;;;;;;5106365;28;1347;-81
2022/06/29 13:56:42;;;;;;;;;;;;;;;;;;5105444;28;1236;-80
2022/06/29 13:59:07;;;;;;;;;;;;;;;;;;5102494;28;1257;-79
2022/06/29 14:01:33;;;;;;;;;;;;;;;;;;5114732;27;1431;-80
2022/06/29 14:03:58;;;;;;;;;;;;;;;;;;5122611;27;1153;-80
2022/06/29 14:06:26;;;;;;;;;;;;;;;;;;5125454;27;1255;-83
2022/06/29 14:08:53;;;;;;;;;;;;;;;;;;5126040;27;1134;-81
2022/06/29 14:11:18;;;;;;;;;;;;;;;;;;5121937;27;1980;-81
2022/06/29 14:13:43;;;;;;;;;;;;;;;;;;5114370;27;1096;-82
2022/06/29 14:16:09;;;;;;;;;;;;;;;;;;5106037;27;1162;-82
2022/06/29 14:18:34;;;;;;;;;;;;;;;;;;5106218;27;1196;-80
2022/06/29 14:20:59;;;;;;;;;;;;;;;;;;5101776;27;1277;-81
2022/06/29 14:23:25;;;;;;;;;;;;;;;;;;5111418;27;1230;-82
2022/06/29 14:25:56;;;;;;;;;;;;;;;;;;5117658;27;1248;-82
2022/06/29 14:28:22;;;;;;;;;;;;;;;;;;5096156;27;1206;-80
2022/06/29 14:30:48;;;;;;;;;;;;;;;;;;5125628;27;1924;-80
2022/06/29 14:33:13;;;;;;;;;;;;;;;;;;5119687;27;1334;-80
2022/06/29 14:35:39;;;;;;;;;;;;;;;;;;5085403;28;1589;-79
2022/06/29 14:38:04;;;;;;;;;;;;;;;;;;5105204;28;1187;-80
2022/06/29 14:40:30;;;;;;;;;;;;;;;;;;5108432;28;1214;-80
2022/06/29 14:42:56;;;;;;;;;;;;;;;;;;5114643;27;1285;-82
2022/06/29 14:45:21;;;;;;;;;;;;;;;;;;5089732;28;1400;-81
2022/06/29 14:47:47;;;;;;;;;;;;;;;;;;5086306;28;1324;-80
2022/06/29 14:50:21;;;;;;;;;;;;;;;;;;5117499;27;1917;-79
2022/06/29 14:52:47;;;;;;;;;;;;;;;;;;5125610;27;1220;-78
2022/06/29 14:55:12;;;;;;;;;;;;;;;;;;5106141;27;1316;-79
2022/06/29 14:57:37;;;;;;;;;;;;;;;;;;5129282;27;1234;-79
2022/06/29 15:00:04;;;;;;;;;;;;;;;;;;5108658;27;1272;-79
2022/06/29 15:02:40;;;;;;;;;;;;;;;;;;5128419;27;1267;-79
2022/06/29 15:05:06;;;;;;;;;;;;;;;;;;5129910;27;1222;-80
2022/06/29 15:07:31;;;;;;;;;;;;;;;;;;5126522;27;1249;-80
2022/06/29 15:10:03;;;;;;;;;;;;;;;;;;5111150;27;1894;-89
2022/06/29 15:12:29;;;;;;;;;;;;;;;;;;5111341;27;1316;-81
2022/06/29 15:15:03;;;;;;;;;;;;;;;;;;5123397;27;1291;-77
2022/06/29 15:17:38;;;;;;;;;;;;;;;;;;5124817;27;1217;-77
2022/06/29 15:20:04;;;;;;;;;;;;;;;;;;5123511;27;1343;-78
2022/06/29 15:22:30;;;;;;;;;;;;;;;;;;5125738;27;1119;-77
2022/06/29 15:25:05;;;;;;;;;;;;;;;;;;5124387;27;1143;-78
2022/06/29 15:27:30;;;;;;;;;;;;;;;;;;5107164;27;1237;-78
2022/06/29 15:29:59;;;;;;;;;;;;;;;;;;5086192;28;1898;-77
2022/06/29 15:32:24;;;;;;;;;;;;;;;;;;5104158;28;1152;-77
2022/06/29 15:40:20;;;;;;;;;;;;;;;;;;5119781;27;1098;-78
2022/06/29 15:42:45;;;;;;;;;;;;;;;;;;5085535;28;1174;-79
2022/06/29 15:45:11;;;;;;;;;;;;;;;;;;5101136;28;1230;-79
2022/06/29 15:47:37;;;;;;;;;;;;;;;;;;5102684;28;1237;-80
2022/06/29 15:50:03;;;;;;;;;;;;;;;;;;5111423;28;2012;-79
2022/06/29 15:52:31;;;;;;;;;;;;;;;;;;5105819;28;1197;-87
2022/06/29 15:57:44;;;;;;;;;;;;;;;;;;5104710;28;1031;-78
2022/06/29 16:00:12;;;;;;;;;;;;;;;;;;5111380;27;1172;-82
2022/06/29 16:02:40;;;;;;;;;;;;;;;;;;5108919;27;1158;-81
2022/06/29 16:05:06;;;;;;;;;;;;;;;;;;5106277;27;1246;-80
2022/06/29 16:07:34;;;;;;;;;;;;;;;;;;5111031;27;1171;-81
2022/06/29 16:10:09;;;;;;;;;;;;;;;;;;5112029;27;1890;-79
2022/06/29 16:12:34;;;;;;;;;;;;;;;;;;5125112;27;1139;-81
2022/06/29 16:15:04;;;;;;;;;;;;;;;;;;5124718;27;1163;-81
2022/06/29 16:17:40;;;;;;;;;;;;;;;;;;5126283;27;1024;-82
2022/06/29 16:20:06;;;;;;;;;;;;;;;;;;5111560;27;1414;-79
2022/06/29 16:22:33;;;;;;;;;;;;;;;;;;5122616;27;1147;-82
2022/06/29 16:25:01;;;;;;;;;;;;;;;;;;5125364;27;1510;-82
2022/06/29 16:27:26;;;;;;;;;;;;;;;;;;5102115;28;1221;-82
2022/06/29 16:29:53;;;;;;;;;;;;;;;;;;5114199;27;1882;-81
2022/06/29 16:32:18;;;;;;;;;;;;;;;;;;5117672;27;1303;-83
2022/06/29 16:34:43;;;;;;;;;;;;;;;;;;5128031;27;1183;-82
2022/06/29 16:37:09;;;;;;;;;;;;;;;;;;5106582;27;1187;-83
2022/06/29 16:39:34;;;;;;;;;;;;;;;;;;5123864;27;1270;-82
2022/06/29 16:41:59;;;;;;;;;;;;;;;;;;5133327;27;1139;-83
2022/06/29 16:44:24;;;;;;;;;;;;;;;;;;5122971;27;1162;-84
2022/06/29 16:46:54;;;;;;;;;;;;;;;;;;5128599;27;1166;-82
2022/06/29 16:49:19;;;;;;;;;;;;;;;;;;5140999;27;1913;-85
2022/06/29 16:51:45;;;;;;;;;;;;;;;;;;5129653;27;1210;-85
2022/06/29 16:54:10;;;;;;;;;;;;;;;;;;5151419;27;1182;-84
2022/06/29 16:56:35;;;;;;;;;;;;;;;;;;5117175;27;1192;-84
2022/06/29 16:59:12;;;;;;;;;;;;;;;;;;5140454;27;1313;-83
2022/06/29 17:01:38;;;;;;;;;;;;;;;;;;5141987;27;1123;-84
2022/06/29 17:04:05;;;;;;;;;;;;;;;;;;5146874;27;1143;-84
2022/06/29 17:06:31;;;;;;;;;;;;;;;;;;5122800;27;1267;-82
2022/06/29 17:09:00;;;;;;;;;;;;;;;;;;5119888;27;1171;-84
2022/06/29 17:11:25;;;;;;;;;;;;;;;;;;5127379;27;1914;-83
2022/06/29 17:13:51;;;;;;;;;;;;;;;;;;5109699;27;1231;-86
2022/06/29 17:16:17;;;;;;;;;;;;;;;;;;5118940;27;1176;-84
2022/06/29 17:18:42;;;;;;;;;;;;;;;;;;5125776;27;1300;-85
2022/06/29 17:21:11;;;;;;;;;;;;;;;;;;5129755;27;1409;-85
2022/06/29 17:23:36;;;;;;;;;;;;;;;;;;5118368;27;1252;-84
2022/06/29 17:26:01;;;;;;;;;;;;;;;;;;5114505;27;1167;-81
2022/06/29 17:28:28;;;;;;;;;;;;;;;;;;5093245;27;1194;-82
2022/06/29 17:30:53;;;;;;;;;;;;;;;;;;5091262;27;1987;-79
2022/06/29 17:33:18;;;;;;;;;;;;;;;;;;5125881;27;1287;-82
2022/06/29 17:35:44;;;;;;;;;;;;;;;;;;5131410;27;1186;-82